sensor_id;sensor_type;location;lat;lon;timestamp;P1;durP1;ratioP1;P2;durP2;ratioP2
2452;SDS011;63678;47.994;7.854;2023-06-10T00:01:27;9.40;;;5.80;;
2452;SDS011;63678;47.994;7.854;2023-06-10T00:04:00;8.00;;;5.60;;
2452;SDS011;63678;47.994;7.854;2023-06-10T00:06:32;7.93;;;5.75;;
2452;SDS011;63678;47.994;7.854;2023-06-10T00:09:07;7.88;;;5.82;;
2452;SDS011;63678;47.994;7.854;2023-06-10T00:11:41;7.60;;;5.50;;
2452;SDS011;63678;47.994;7.854;2023-06-10T00:14:14;11.43;;;6.20;;
2452;SDS011;63678;47.994;7.854;2023-06-10T00:16:47;8.23;;;5.20;;
2452;SDS011;63678;47.994;7.854;2023-06-10T00:19:19;7.88;;;5.75;;
2452;SDS011;63678;47.994;7.854;2023-06-10T00:21:57;9.25;;;5.40;;
2452;SDS011;63678;47.994;7.854;2023-06-10T00:24:29;9.63;;;5.68;;
2452;SDS011;63678;47.994;7.854;2023-06-10T00:27:02;8.57;;;5.90;;
2452;SDS011;63678;47.994;7.854;2023-06-10T00:29:34;9.20;;;5.70;;
2452;SDS011;63678;47.994;7.854;2023-06-10T00:32:07;8.65;;;5.95;;
2452;SDS011;63678;47.994;7.854;2023-06-10T00:34:41;9.82;;;5.80;;
2452;SDS011;63678;47.994;7.854;2023-06-10T00:37:13;8.57;;;5.80;;
2452;SDS011;63678;47.994;7.854;2023-06-10T00:39:46;10.03;;;6.27;;
2452;SDS011;63678;47.994;7.854;2023-06-10T00:42:19;9.05;;;5.97;;
2452;SDS011;63678;47.994;7.854;2023-06-10T00:44:51;9.30;;;5.75;;
2452;SDS011;63678;47.994;7.854;2023-06-10T00:47:26;10.30;;;6.00;;
2452;SDS011;63678;47.994;7.854;2023-06-10T00:49:59;9.23;;;6.22;;
2452;SDS011;63678;47.994;7.854;2023-06-10T00:52:31;7.67;;;5.40;;
2452;SDS011;63678;47.994;7.854;2023-06-10T00:55:06;10.30;;;6.00;;
2452;SDS011;63678;47.994;7.854;2023-06-10T00:57:39;9.52;;;5.82;;
2452;SDS011;63678;47.994;7.854;2023-06-10T01:00:12;8.15;;;6.03;;
2452;SDS011;63678;47.994;7.854;2023-06-10T01:02:45;8.32;;;5.68;;
2452;SDS011;63678;47.994;7.854;2023-06-10T01:05:17;8.63;;;5.70;;
2452;SDS011;63678;47.994;7.854;2023-06-10T01:10:43;8.40;;;6.15;;
2452;SDS011;63678;47.994;7.854;2023-06-10T01:13:27;8.18;;;5.90;;
2452;SDS011;63678;47.994;7.854;2023-06-10T01:16:01;10.75;;;6.25;;
2452;SDS011;63678;47.994;7.854;2023-06-10T01:18:35;8.23;;;5.87;;
2452;SDS011;63678;47.994;7.854;2023-06-10T01:21:07;8.48;;;5.57;;
2452;SDS011;63678;47.994;7.854;2023-06-10T01:23:43;8.32;;;6.55;;
2452;SDS011;63678;47.994;7.854;2023-06-10T01:26:17;10.15;;;6.32;;
2452;SDS011;63678;47.994;7.854;2023-06-10T01:28:57;8.57;;;6.25;;
2452;SDS011;63678;47.994;7.854;2023-06-10T01:31:51;9.47;;;5.90;;
2452;SDS011;63678;47.994;7.854;2023-06-10T01:34:34;8.00;;;6.22;;
2452;SDS011;63678;47.994;7.854;2023-06-10T01:37:10;9.50;;;6.70;;
2452;SDS011;63678;47.994;7.854;2023-06-10T01:39:48;8.80;;;6.07;;
2452;SDS011;63678;47.994;7.854;2023-06-10T01:42:21;9.73;;;6.30;;
2452;SDS011;63678;47.994;7.854;2023-06-10T01:44:57;8.77;;;5.87;;
2452;SDS011;63678;47.994;7.854;2023-06-10T01:47:30;7.93;;;5.97;;
2452;SDS011;63678;47.994;7.854;2023-06-10T01:50:04;8.57;;;6.38;;
2452;SDS011;63678;47.994;7.854;2023-06-10T01:52:39;8.93;;;6.05;;
2452;SDS011;63678;47.994;7.854;2023-06-10T01:55:12;8.32;;;6.40;;
2452;SDS011;63678;47.994;7.854;2023-06-10T01:57:44;10.07;;;6.60;;
2452;SDS011;63678;47.994;7.854;2023-06-10T02:00:17;9.23;;;6.30;;
2452;SDS011;63678;47.994;7.854;2023-06-10T02:02:50;8.68;;;6.28;;
2452;SDS011;63678;47.994;7.854;2023-06-10T02:05:23;8.98;;;6.55;;
2452;SDS011;63678;47.994;7.854;2023-06-10T02:07:56;8.02;;;5.97;;
2452;SDS011;63678;47.994;7.854;2023-06-10T02:10:28;8.07;;;6.20;;
2452;SDS011;63678;47.994;7.854;2023-06-10T02:13:01;9.80;;;6.57;;
2452;SDS011;63678;47.994;7.854;2023-06-10T02:15:33;8.40;;;6.00;;
2452;SDS011;63678;47.994;7.854;2023-06-10T02:18:06;9.00;;;6.72;;
2452;SDS011;63678;47.994;7.854;2023-06-10T02:20:42;10.07;;;6.30;;
2452;SDS011;63678;47.994;7.854;2023-06-10T02:23:14;10.03;;;6.47;;
2452;SDS011;63678;47.994;7.854;2023-06-10T02:25:46;9.00;;;6.50;;
2452;SDS011;63678;47.994;7.854;2023-06-10T02:28:19;9.23;;;6.63;;
2452;SDS011;63678;47.994;7.854;2023-06-10T02:30:52;9.00;;;6.40;;
2452;SDS011;63678;47.994;7.854;2023-06-10T02:33:25;10.32;;;7.20;;
2452;SDS011;63678;47.994;7.854;2023-06-10T02:35:59;9.60;;;6.30;;
2452;SDS011;63678;47.994;7.854;2023-06-10T02:38:31;8.43;;;6.57;;
2452;SDS011;63678;47.994;7.854;2023-06-10T02:41:24;9.93;;;7.68;;
2452;SDS011;63678;47.994;7.854;2023-06-10T02:43:59;10.15;;;6.90;;
2452;SDS011;63678;47.994;7.854;2023-06-10T02:46:32;10.73;;;6.65;;
2452;SDS011;63678;47.994;7.854;2023-06-10T02:49:04;9.93;;;6.83;;
2452;SDS011;63678;47.994;7.854;2023-06-10T02:51:37;9.68;;;7.05;;
2452;SDS011;63678;47.994;7.854;2023-06-10T02:54:12;11.02;;;7.53;;
2452;SDS011;63678;47.994;7.854;2023-06-10T02:56:44;9.00;;;6.53;;
2452;SDS011;63678;47.994;7.854;2023-06-10T02:59:24;9.63;;;7.03;;
2452;SDS011;63678;47.994;7.854;2023-06-10T03:01:59;10.93;;;6.73;;
2452;SDS011;63678;47.994;7.854;2023-06-10T03:04:37;9.32;;;6.63;;
2452;SDS011;63678;47.994;7.854;2023-06-10T03:07:16;10.63;;;6.82;;
2452;SDS011;63678;47.994;7.854;2023-06-10T03:09:48;11.57;;;6.90;;
2452;SDS011;63678;47.994;7.854;2023-06-10T03:12:22;9.93;;;7.13;;
2452;SDS011;63678;47.994;7.854;2023-06-10T03:14:54;10.47;;;6.90;;
2452;SDS011;63678;47.994;7.854;2023-06-10T03:17:27;10.05;;;6.80;;
2452;SDS011;63678;47.994;7.854;2023-06-10T03:20:00;10.65;;;6.80;;
2452;SDS011;63678;47.994;7.854;2023-06-10T03:22:32;10.10;;;7.10;;
2452;SDS011;63678;47.994;7.854;2023-06-10T03:25:10;9.88;;;7.25;;
2452;SDS011;63678;47.994;7.854;2023-06-10T03:27:48;9.27;;;6.80;;
2452;SDS011;63678;47.994;7.854;2023-06-10T03:30:23;11.25;;;7.70;;
2452;SDS011;63678;47.994;7.854;2023-06-10T03:32:55;10.25;;;6.75;;
2452;SDS011;63678;47.994;7.854;2023-06-10T03:35:30;9.70;;;7.13;;
2452;SDS011;63678;47.994;7.854;2023-06-10T03:38:08;8.88;;;7.28;;
2452;SDS011;63678;47.994;7.854;2023-06-10T03:40:40;9.47;;;7.30;;
2452;SDS011;63678;47.994;7.854;2023-06-10T03:43:14;10.60;;;7.40;;
2452;SDS011;63678;47.994;7.854;2023-06-10T03:45:47;9.65;;;7.32;;
2452;SDS011;63678;47.994;7.854;2023-06-10T03:48:21;10.93;;;7.47;;
2452;SDS011;63678;47.994;7.854;2023-06-10T03:50:56;9.18;;;7.22;;
2452;SDS011;63678;47.994;7.854;2023-06-10T03:53:30;10.87;;;7.73;;
2452;SDS011;63678;47.994;7.854;2023-06-10T03:56:03;9.73;;;7.40;;
2452;SDS011;63678;47.994;7.854;2023-06-10T03:58:36;10.13;;;7.80;;
2452;SDS011;63678;47.994;7.854;2023-06-10T04:01:09;10.48;;;7.65;;
2452;SDS011;63678;47.994;7.854;2023-06-10T04:03:42;11.35;;;8.00;;
2452;SDS011;63678;47.994;7.854;2023-06-10T04:06:15;11.40;;;7.83;;
2452;SDS011;63678;47.994;7.854;2023-06-10T04:08:48;12.43;;;8.30;;
2452;SDS011;63678;47.994;7.854;2023-06-10T04:11:20;11.20;;;8.38;;
2452;SDS011;63678;47.994;7.854;2023-06-10T04:13:53;10.32;;;8.25;;
2452;SDS011;63678;47.994;7.854;2023-06-10T04:16:26;10.57;;;8.10;;
2452;SDS011;63678;47.994;7.854;2023-06-10T04:18:59;11.33;;;8.13;;
2452;SDS011;63678;47.994;7.854;2023-06-10T04:21:32;11.52;;;8.63;;
2452;SDS011;63678;47.994;7.854;2023-06-10T04:24:05;14.52;;;9.10;;
2452;SDS011;63678;47.994;7.854;2023-06-10T04:26:38;13.75;;;9.15;;
2452;SDS011;63678;47.994;7.854;2023-06-10T04:29:11;12.40;;;9.82;;
2452;SDS011;63678;47.994;7.854;2023-06-10T04:31:48;11.27;;;9.03;;
2452;SDS011;63678;47.994;7.854;2023-06-10T04:34:21;11.82;;;9.35;;
2452;SDS011;63678;47.994;7.854;2023-06-10T04:36:54;12.65;;;9.13;;
2452;SDS011;63678;47.994;7.854;2023-06-10T04:39:26;13.27;;;8.27;;
2452;SDS011;63678;47.994;7.854;2023-06-10T04:42:00;12.05;;;8.82;;
2452;SDS011;63678;47.994;7.854;2023-06-10T04:44:33;11.83;;;8.60;;
2452;SDS011;63678;47.994;7.854;2023-06-10T04:47:06;9.30;;;7.82;;
2452;SDS011;63678;47.994;7.854;2023-06-10T04:49:39;14.23;;;8.60;;
2452;SDS011;63678;47.994;7.854;2023-06-10T04:52:12;10.52;;;8.10;;
2452;SDS011;63678;47.994;7.854;2023-06-10T04:54:50;10.77;;;8.68;;
2452;SDS011;63678;47.994;7.854;2023-06-10T04:57:22;9.80;;;8.43;;
2452;SDS011;63678;47.994;7.854;2023-06-10T04:59:55;14.63;;;8.88;;
2452;SDS011;63678;47.994;7.854;2023-06-10T05:02:27;10.32;;;8.63;;
2452;SDS011;63678;47.994;7.854;2023-06-10T05:05:00;11.55;;;8.68;;
2452;SDS011;63678;47.994;7.854;2023-06-10T05:07:32;15.60;;;9.38;;
2452;SDS011;63678;47.994;7.854;2023-06-10T05:10:05;11.70;;;8.03;;
2452;SDS011;63678;47.994;7.854;2023-06-10T05:12:38;11.10;;;8.48;;
2452;SDS011;63678;47.994;7.854;2023-06-10T05:15:12;10.45;;;8.77;;
2452;SDS011;63678;47.994;7.854;2023-06-10T05:17:44;11.02;;;8.50;;
2452;SDS011;63678;47.994;7.854;2023-06-10T05:20:17;10.10;;;8.40;;
2452;SDS011;63678;47.994;7.854;2023-06-10T05:22:50;10.33;;;8.17;;
2452;SDS011;63678;47.994;7.854;2023-06-10T05:25:23;10.55;;;8.20;;
2452;SDS011;63678;47.994;7.854;2023-06-10T05:27:58;10.63;;;8.35;;
2452;SDS011;63678;47.994;7.854;2023-06-10T05:30:30;14.50;;;9.98;;
2452;SDS011;63678;47.994;7.854;2023-06-10T05:33:06;10.88;;;8.23;;
2452;SDS011;63678;47.994;7.854;2023-06-10T05:35:38;11.67;;;8.37;;
2452;SDS011;63678;47.994;7.854;2023-06-10T05:38:13;11.63;;;8.13;;
2452;SDS011;63678;47.994;7.854;2023-06-10T05:40:45;11.38;;;7.95;;
2452;SDS011;63678;47.994;7.854;2023-06-10T05:43:18;11.20;;;8.20;;
2452;SDS011;63678;47.994;7.854;2023-06-10T05:45:51;11.52;;;7.97;;
2452;SDS011;63678;47.994;7.854;2023-06-10T05:48:24;10.03;;;8.10;;
2452;SDS011;63678;47.994;7.854;2023-06-10T05:50:56;10.63;;;8.73;;
2452;SDS011;63678;47.994;7.854;2023-06-10T05:53:29;10.43;;;8.23;;
2452;SDS011;63678;47.994;7.854;2023-06-10T05:56:01;11.32;;;8.65;;
2452;SDS011;63678;47.994;7.854;2023-06-10T05:58:34;15.38;;;8.63;;
2452;SDS011;63678;47.994;7.854;2023-06-10T06:01:07;10.77;;;8.43;;
2452;SDS011;63678;47.994;7.854;2023-06-10T06:03:39;15.07;;;9.27;;
2452;SDS011;63678;47.994;7.854;2023-06-10T06:06:12;10.10;;;8.07;;
2452;SDS011;63678;47.994;7.854;2023-06-10T06:09:26;11.27;;;9.20;;
2452;SDS011;63678;47.994;7.854;2023-06-10T06:11:59;11.38;;;8.55;;
2452;SDS011;63678;47.994;7.854;2023-06-10T06:14:32;10.93;;;8.37;;
2452;SDS011;63678;47.994;7.854;2023-06-10T06:17:05;11.75;;;8.50;;
2452;SDS011;63678;47.994;7.854;2023-06-10T06:19:37;11.45;;;8.70;;
2452;SDS011;63678;47.994;7.854;2023-06-10T06:22:10;10.40;;;8.40;;
2452;SDS011;63678;47.994;7.854;2023-06-10T06:24:42;14.25;;;8.77;;
2452;SDS011;63678;47.994;7.854;2023-06-10T06:27:15;10.90;;;7.90;;
2452;SDS011;63678;47.994;7.854;2023-06-10T06:29:48;10.15;;;8.23;;
2452;SDS011;63678;47.994;7.854;2023-06-10T06:32:23;11.32;;;7.88;;
2452;SDS011;63678;47.994;7.854;2023-06-10T06:34:58;10.90;;;7.55;;
2452;SDS011;63678;47.994;7.854;2023-06-10T06:37:32;9.30;;;6.80;;
2452;SDS011;63678;47.994;7.854;2023-06-10T06:40:18;11.50;;;6.83;;
2452;SDS011;63678;47.994;7.854;2023-06-10T06:42:50;13.75;;;7.32;;
2452;SDS011;63678;47.994;7.854;2023-06-10T06:45:33;9.20;;;6.20;;
2452;SDS011;63678;47.994;7.854;2023-06-10T06:48:05;10.75;;;6.38;;
2452;SDS011;63678;47.994;7.854;2023-06-10T06:50:38;8.45;;;6.47;;
2452;SDS011;63678;47.994;7.854;2023-06-10T06:53:31;8.87;;;6.37;;
2452;SDS011;63678;47.994;7.854;2023-06-10T06:56:25;10.95;;;6.20;;
2452;SDS011;63678;47.994;7.854;2023-06-10T06:58:59;12.05;;;7.03;;
2452;SDS011;63678;47.994;7.854;2023-06-10T07:01:33;7.57;;;5.93;;
2452;SDS011;63678;47.994;7.854;2023-06-10T07:04:25;9.63;;;6.93;;
2452;SDS011;63678;47.994;7.854;2023-06-10T07:06:57;9.90;;;6.70;;
2452;SDS011;63678;47.994;7.854;2023-06-10T07:09:49;8.65;;;7.13;;
2452;SDS011;63678;47.994;7.854;2023-06-10T07:12:21;11.27;;;6.68;;
2452;SDS011;63678;47.994;7.854;2023-06-10T07:14:55;11.38;;;6.68;;
2452;SDS011;63678;47.994;7.854;2023-06-10T07:17:28;8.38;;;6.40;;
2452;SDS011;63678;47.994;7.854;2023-06-10T07:20:01;8.13;;;6.60;;
2452;SDS011;63678;47.994;7.854;2023-06-10T07:22:34;8.18;;;6.32;;
2452;SDS011;63678;47.994;7.854;2023-06-10T07:25:07;8.25;;;6.60;;
2452;SDS011;63678;47.994;7.854;2023-06-10T07:27:41;8.27;;;6.90;;
2452;SDS011;63678;47.994;7.854;2023-06-10T07:30:13;9.95;;;6.90;;
2452;SDS011;63678;47.994;7.854;2023-06-10T07:32:46;10.70;;;6.77;;
2452;SDS011;63678;47.994;7.854;2023-06-10T07:35:18;10.82;;;6.47;;
2452;SDS011;63678;47.994;7.854;2023-06-10T07:37:51;8.43;;;7.15;;
2452;SDS011;63678;47.994;7.854;2023-06-10T07:40:23;8.13;;;6.85;;
2452;SDS011;63678;47.994;7.854;2023-06-10T07:42:56;7.78;;;6.22;;
2452;SDS011;63678;47.994;7.854;2023-06-10T07:45:31;10.13;;;6.37;;
2452;SDS011;63678;47.994;7.854;2023-06-10T07:48:03;8.70;;;6.32;;
2452;SDS011;63678;47.994;7.854;2023-06-10T07:50:36;10.43;;;6.40;;
2452;SDS011;63678;47.994;7.854;2023-06-10T07:53:09;10.80;;;6.30;;
2452;SDS011;63678;47.994;7.854;2023-06-10T07:55:42;7.45;;;6.10;;
2452;SDS011;63678;47.994;7.854;2023-06-10T07:58:14;8.03;;;6.43;;
2452;SDS011;63678;47.994;7.854;2023-06-10T08:00:47;9.13;;;6.20;;
2452;SDS011;63678;47.994;7.854;2023-06-10T08:03:19;7.82;;;6.45;;
2452;SDS011;63678;47.994;7.854;2023-06-10T08:05:53;7.90;;;6.30;;
2452;SDS011;63678;47.994;7.854;2023-06-10T08:08:25;7.97;;;6.25;;
2452;SDS011;63678;47.994;7.854;2023-06-10T08:10:57;8.07;;;6.00;;
2452;SDS011;63678;47.994;7.854;2023-06-10T08:13:30;9.75;;;6.07;;
2452;SDS011;63678;47.994;7.854;2023-06-10T08:16:03;7.30;;;5.97;;
2452;SDS011;63678;47.994;7.854;2023-06-10T08:18:35;9.68;;;6.35;;
2452;SDS011;63678;47.994;7.854;2023-06-10T08:21:08;8.73;;;6.13;;
2452;SDS011;63678;47.994;7.854;2023-06-10T08:23:40;7.67;;;5.97;;
2452;SDS011;63678;47.994;7.854;2023-06-10T08:26:14;7.80;;;6.38;;
2452;SDS011;63678;47.994;7.854;2023-06-10T08:28:46;9.70;;;7.32;;
2452;SDS011;63678;47.994;7.854;2023-06-10T08:31:19;8.55;;;6.55;;
2452;SDS011;63678;47.994;7.854;2023-06-10T08:33:51;9.23;;;6.47;;
2452;SDS011;63678;47.994;7.854;2023-06-10T08:36:24;8.73;;;6.73;;
2452;SDS011;63678;47.994;7.854;2023-06-10T08:38:57;9.45;;;6.63;;
2452;SDS011;63678;47.994;7.854;2023-06-10T08:41:30;8.93;;;6.53;;
2452;SDS011;63678;47.994;7.854;2023-06-10T08:44:09;8.60;;;6.70;;
2452;SDS011;63678;47.994;7.854;2023-06-10T08:46:52;8.85;;;6.55;;
2452;SDS011;63678;47.994;7.854;2023-06-10T08:49:29;8.13;;;6.10;;
2452;SDS011;63678;47.994;7.854;2023-06-10T08:52:06;8.35;;;6.55;;
2452;SDS011;63678;47.994;7.854;2023-06-10T08:55:10;8.27;;;6.90;;
2452;SDS011;63678;47.994;7.854;2023-06-10T08:57:46;11.68;;;6.40;;
2452;SDS011;63678;47.994;7.854;2023-06-10T09:00:19;9.55;;;6.65;;
2452;SDS011;63678;47.994;7.854;2023-06-10T09:02:53;9.60;;;6.97;;
2452;SDS011;63678;47.994;7.854;2023-06-10T09:05:27;9.82;;;7.15;;
2452;SDS011;63678;47.994;7.854;2023-06-10T09:08:01;8.55;;;7.00;;
2452;SDS011;63678;47.994;7.854;2023-06-10T09:10:34;9.23;;;6.90;;
2452;SDS011;63678;47.994;7.854;2023-06-10T09:13:07;8.18;;;6.70;;
2452;SDS011;63678;47.994;7.854;2023-06-10T09:15:39;10.53;;;7.60;;
2452;SDS011;63678;47.994;7.854;2023-06-10T09:18:13;8.70;;;7.07;;
2452;SDS011;63678;47.994;7.854;2023-06-10T09:20:46;7.80;;;6.75;;
2452;SDS011;63678;47.994;7.854;2023-06-10T09:23:18;8.20;;;6.88;;
2452;SDS011;63678;47.994;7.854;2023-06-10T09:25:57;8.73;;;7.35;;
2452;SDS011;63678;47.994;7.854;2023-06-10T09:28:30;9.77;;;7.13;;
2452;SDS011;63678;47.994;7.854;2023-06-10T09:31:03;9.15;;;7.68;;
2452;SDS011;63678;47.994;7.854;2023-06-10T09:33:39;10.93;;;8.40;;
2452;SDS011;63678;47.994;7.854;2023-06-10T09:36:12;13.15;;;7.85;;
2452;SDS011;63678;47.994;7.854;2023-06-10T09:38:56;11.27;;;8.00;;
2452;SDS011;63678;47.994;7.854;2023-06-10T09:41:31;9.03;;;7.70;;
2452;SDS011;63678;47.994;7.854;2023-06-10T09:44:14;9.60;;;7.40;;
2452;SDS011;63678;47.994;7.854;2023-06-10T09:46:52;10.02;;;7.20;;
2452;SDS011;63678;47.994;7.854;2023-06-10T09:50:05;8.13;;;7.15;;
2452;SDS011;63678;47.994;7.854;2023-06-10T09:52:59;9.65;;;7.90;;
2452;SDS011;63678;47.994;7.854;2023-06-10T09:55:34;9.13;;;7.50;;
2452;SDS011;63678;47.994;7.854;2023-06-10T09:58:08;12.55;;;8.07;;
2452;SDS011;63678;47.994;7.854;2023-06-10T10:00:41;11.30;;;7.68;;
2452;SDS011;63678;47.994;7.854;2023-06-10T10:03:16;14.23;;;8.35;;
2452;SDS011;63678;47.994;7.854;2023-06-10T10:05:58;12.45;;;8.10;;
2452;SDS011;63678;47.994;7.854;2023-06-10T10:08:32;10.07;;;7.80;;
2452;SDS011;63678;47.994;7.854;2023-06-10T10:11:04;10.23;;;8.35;;
2452;SDS011;63678;47.994;7.854;2023-06-10T10:13:37;10.38;;;8.38;;
2452;SDS011;63678;47.994;7.854;2023-06-10T10:16:11;11.85;;;8.25;;
2452;SDS011;63678;47.994;7.854;2023-06-10T10:18:51;11.15;;;8.57;;
2452;SDS011;63678;47.994;7.854;2023-06-10T10:21:29;10.93;;;8.53;;
2452;SDS011;63678;47.994;7.854;2023-06-10T10:24:15;10.52;;;8.32;;
2452;SDS011;63678;47.994;7.854;2023-06-10T10:26:50;11.32;;;9.25;;
2452;SDS011;63678;47.994;7.854;2023-06-10T10:32:10;11.15;;;8.52;;
2452;SDS011;63678;47.994;7.854;2023-06-10T10:34:49;23.37;;;11.80;;
2452;SDS011;63678;47.994;7.854;2023-06-10T10:37:41;15.07;;;9.25;;
2452;SDS011;63678;47.994;7.854;2023-06-10T10:40:13;10.70;;;8.30;;
2452;SDS011;63678;47.994;7.854;2023-06-10T10:42:47;11.07;;;9.07;;
2452;SDS011;63678;47.994;7.854;2023-06-10T10:45:21;10.75;;;8.90;;
2452;SDS011;63678;47.994;7.854;2023-06-10T10:47:55;12.80;;;9.20;;
2452;SDS011;63678;47.994;7.854;2023-06-10T10:50:28;11.38;;;8.38;;
2452;SDS011;63678;47.994;7.854;2023-06-10T10:53:04;13.77;;;9.20;;
2452;SDS011;63678;47.994;7.854;2023-06-10T10:55:37;10.45;;;9.18;;
2452;SDS011;63678;47.994;7.854;2023-06-10T10:58:11;13.52;;;9.10;;
2452;SDS011;63678;47.994;7.854;2023-06-10T11:00:48;13.37;;;10.53;;
2452;SDS011;63678;47.994;7.854;2023-06-10T11:03:21;10.60;;;9.45;;
2452;SDS011;63678;47.994;7.854;2023-06-10T11:05:54;12.93;;;9.57;;
2452;SDS011;63678;47.994;7.854;2023-06-10T11:11:26;10.32;;;8.90;;
2452;SDS011;63678;47.994;7.854;2023-06-10T11:16:41;13.27;;;8.98;;
2452;SDS011;63678;47.994;7.854;2023-06-10T11:22:08;11.90;;;9.23;;
2452;SDS011;63678;47.994;7.854;2023-06-10T11:24:51;10.93;;;9.27;;
2452;SDS011;63678;47.994;7.854;2023-06-10T11:27:25;12.07;;;9.50;;
2452;SDS011;63678;47.994;7.854;2023-06-10T11:32:35;9.50;;;8.45;;
2452;SDS011;63678;47.994;7.854;2023-06-10T11:35:08;12.48;;;9.25;;
2452;SDS011;63678;47.994;7.854;2023-06-10T11:37:41;10.20;;;9.10;;
2452;SDS011;63678;47.994;7.854;2023-06-10T11:40:13;11.20;;;9.37;;
2452;SDS011;63678;47.994;7.854;2023-06-10T11:42:45;12.43;;;9.13;;
2452;SDS011;63678;47.994;7.854;2023-06-10T11:45:18;12.95;;;9.85;;
2452;SDS011;63678;47.994;7.854;2023-06-10T11:47:55;11.02;;;9.20;;
2452;SDS011;63678;47.994;7.854;2023-06-10T11:50:32;11.18;;;8.75;;
2452;SDS011;63678;47.994;7.854;2023-06-10T11:53:07;13.07;;;8.53;;
2452;SDS011;63678;47.994;7.854;2023-06-10T11:58:22;9.52;;;8.20;;
2452;SDS011;63678;47.994;7.854;2023-06-10T12:00:55;11.95;;;8.27;;
2452;SDS011;63678;47.994;7.854;2023-06-10T12:03:36;11.27;;;8.48;;
2452;SDS011;63678;47.994;7.854;2023-06-10T12:06:10;10.57;;;8.43;;
2452;SDS011;63678;47.994;7.854;2023-06-10T12:08:43;9.98;;;8.27;;
2452;SDS011;63678;47.994;7.854;2023-06-10T12:11:16;8.45;;;7.55;;
2452;SDS011;63678;47.994;7.854;2023-06-10T12:13:49;11.63;;;8.02;;
2452;SDS011;63678;47.994;7.854;2023-06-10T12:16:25;10.95;;;7.93;;
2452;SDS011;63678;47.994;7.854;2023-06-10T12:19:02;8.50;;;7.37;;
2452;SDS011;63678;47.994;7.854;2023-06-10T12:21:36;10.15;;;8.23;;
2452;SDS011;63678;47.994;7.854;2023-06-10T12:24:09;10.45;;;8.20;;
2452;SDS011;63678;47.994;7.854;2023-06-10T12:26:44;12.68;;;7.60;;
2452;SDS011;63678;47.994;7.854;2023-06-10T12:29:17;10.73;;;7.63;;
2452;SDS011;63678;47.994;7.854;2023-06-10T12:31:59;10.20;;;8.93;;
2452;SDS011;63678;47.994;7.854;2023-06-10T12:34:37;10.45;;;7.82;;
2452;SDS011;63678;47.994;7.854;2023-06-10T12:37:12;9.48;;;8.35;;
2452;SDS011;63678;47.994;7.854;2023-06-10T12:39:50;9.02;;;7.18;;
2452;SDS011;63678;47.994;7.854;2023-06-10T12:42:25;10.80;;;8.10;;
2452;SDS011;63678;47.994;7.854;2023-06-10T12:44:57;8.43;;;7.27;;
2452;SDS011;63678;47.994;7.854;2023-06-10T12:47:33;14.05;;;8.40;;
2452;SDS011;63678;47.994;7.854;2023-06-10T12:50:10;21.88;;;8.85;;
2452;SDS011;63678;47.994;7.854;2023-06-10T12:52:44;23.65;;;11.30;;
2452;SDS011;63678;47.994;7.854;2023-06-10T12:55:17;15.82;;;9.60;;
2452;SDS011;63678;47.994;7.854;2023-06-10T12:57:49;19.77;;;12.27;;
2452;SDS011;63678;47.994;7.854;2023-06-10T13:00:22;13.85;;;9.48;;
2452;SDS011;63678;47.994;7.854;2023-06-10T13:02:58;14.07;;;11.82;;
2452;SDS011;63678;47.994;7.854;2023-06-10T13:05:33;13.57;;;10.50;;
2452;SDS011;63678;47.994;7.854;2023-06-10T13:08:09;19.85;;;12.25;;
2452;SDS011;63678;47.994;7.854;2023-06-10T13:10:41;15.63;;;10.90;;
2452;SDS011;63678;47.994;7.854;2023-06-10T13:13:15;14.65;;;11.15;;
2452;SDS011;63678;47.994;7.854;2023-06-10T13:15:47;13.15;;;10.85;;
2452;SDS011;63678;47.994;7.854;2023-06-10T13:18:21;16.52;;;11.82;;
2452;SDS011;63678;47.994;7.854;2023-06-10T13:20:54;17.00;;;12.85;;
2452;SDS011;63678;47.994;7.854;2023-06-10T13:23:27;14.20;;;11.07;;
2452;SDS011;63678;47.994;7.854;2023-06-10T13:26:00;12.70;;;10.30;;
2452;SDS011;63678;47.994;7.854;2023-06-10T13:28:35;18.50;;;12.70;;
2452;SDS011;63678;47.994;7.854;2023-06-10T13:31:07;14.38;;;11.15;;
2452;SDS011;63678;47.994;7.854;2023-06-10T13:33:40;14.45;;;9.98;;
2452;SDS011;63678;47.994;7.854;2023-06-10T13:36:15;13.83;;;10.47;;
2452;SDS011;63678;47.994;7.854;2023-06-10T13:38:48;20.55;;;14.73;;
2452;SDS011;63678;47.994;7.854;2023-06-10T13:41:20;17.05;;;12.43;;
2452;SDS011;63678;47.994;7.854;2023-06-10T13:43:53;13.75;;;10.80;;
2452;SDS011;63678;47.994;7.854;2023-06-10T13:46:26;17.70;;;11.20;;
2452;SDS011;63678;47.994;7.854;2023-06-10T13:49:02;12.90;;;10.07;;
2452;SDS011;63678;47.994;7.854;2023-06-10T13:51:35;11.25;;;9.95;;
2452;SDS011;63678;47.994;7.854;2023-06-10T13:54:07;11.57;;;10.38;;
2452;SDS011;63678;47.994;7.854;2023-06-10T13:56:40;11.32;;;9.48;;
2452;SDS011;63678;47.994;7.854;2023-06-10T13:59:12;13.43;;;9.40;;
2452;SDS011;63678;47.994;7.854;2023-06-10T14:01:48;11.57;;;8.33;;
2452;SDS011;63678;47.994;7.854;2023-06-10T14:04:20;9.73;;;7.93;;
2452;SDS011;63678;47.994;7.854;2023-06-10T14:06:53;11.00;;;8.38;;
2452;SDS011;63678;47.994;7.854;2023-06-10T14:09:25;10.60;;;7.35;;
2452;SDS011;63678;47.994;7.854;2023-06-10T14:11:58;9.85;;;7.22;;
2452;SDS011;63678;47.994;7.854;2023-06-10T14:14:31;9.53;;;6.77;;
2452;SDS011;63678;47.994;7.854;2023-06-10T14:17:04;9.75;;;7.40;;
2452;SDS011;63678;47.994;7.854;2023-06-10T14:19:37;10.02;;;7.35;;
2452;SDS011;63678;47.994;7.854;2023-06-10T14:22:11;9.45;;;7.80;;
2452;SDS011;63678;47.994;7.854;2023-06-10T14:24:44;10.55;;;7.68;;
2452;SDS011;63678;47.994;7.854;2023-06-10T14:27:16;11.10;;;8.13;;
2452;SDS011;63678;47.994;7.854;2023-06-10T14:29:49;10.18;;;7.80;;
2452;SDS011;63678;47.994;7.854;2023-06-10T14:32:21;10.20;;;7.47;;
2452;SDS011;63678;47.994;7.854;2023-06-10T14:34:54;10.25;;;7.63;;
2452;SDS011;63678;47.994;7.854;2023-06-10T14:37:26;8.27;;;6.78;;
2452;SDS011;63678;47.994;7.854;2023-06-10T14:39:59;10.97;;;7.47;;
2452;SDS011;63678;47.994;7.854;2023-06-10T14:42:31;10.05;;;7.35;;
2452;SDS011;63678;47.994;7.854;2023-06-10T14:45:05;8.98;;;7.07;;
2452;SDS011;63678;47.994;7.854;2023-06-10T14:47:39;9.07;;;7.45;;
2452;SDS011;63678;47.994;7.854;2023-06-10T14:50:11;9.20;;;7.82;;
2452;SDS011;63678;47.994;7.854;2023-06-10T14:52:44;11.93;;;8.20;;
2452;SDS011;63678;47.994;7.854;2023-06-10T14:55:17;9.82;;;7.85;;
2452;SDS011;63678;47.994;7.854;2023-06-10T14:57:49;9.30;;;7.43;;
2452;SDS011;63678;47.994;7.854;2023-06-10T15:00:22;8.52;;;7.43;;
2452;SDS011;63678;47.994;7.854;2023-06-10T15:02:55;9.85;;;7.68;;
2452;SDS011;63678;47.994;7.854;2023-06-10T15:05:29;8.57;;;6.93;;
2452;SDS011;63678;47.994;7.854;2023-06-10T15:08:02;8.85;;;6.50;;
2452;SDS011;63678;47.994;7.854;2023-06-10T15:10:35;7.75;;;6.45;;
2452;SDS011;63678;47.994;7.854;2023-06-10T15:13:07;7.30;;;5.88;;
2452;SDS011;63678;47.994;7.854;2023-06-10T15:15:40;7.50;;;5.53;;
2452;SDS011;63678;47.994;7.854;2023-06-10T15:18:12;7.77;;;6.13;;
2452;SDS011;63678;47.994;7.854;2023-06-10T15:20:45;7.32;;;5.97;;
2452;SDS011;63678;47.994;7.854;2023-06-10T15:23:17;8.20;;;6.15;;
2452;SDS011;63678;47.994;7.854;2023-06-10T15:25:50;8.20;;;5.78;;
2452;SDS011;63678;47.994;7.854;2023-06-10T15:28:22;7.20;;;5.65;;
2452;SDS011;63678;47.994;7.854;2023-06-10T15:30:59;9.57;;;5.93;;
2452;SDS011;63678;47.994;7.854;2023-06-10T15:33:34;8.38;;;5.68;;
2452;SDS011;63678;47.994;7.854;2023-06-10T15:36:06;9.48;;;6.25;;
2452;SDS011;63678;47.994;7.854;2023-06-10T15:38:39;9.35;;;6.43;;
2452;SDS011;63678;47.994;7.854;2023-06-10T15:41:11;8.00;;;6.18;;
2452;SDS011;63678;47.994;7.854;2023-06-10T15:43:45;8.50;;;6.50;;
2452;SDS011;63678;47.994;7.854;2023-06-10T15:46:17;7.90;;;6.20;;
2452;SDS011;63678;47.994;7.854;2023-06-10T15:48:50;9.25;;;6.60;;
2452;SDS011;63678;47.994;7.854;2023-06-10T15:51:22;9.75;;;6.20;;
2452;SDS011;63678;47.994;7.854;2023-06-10T15:53:55;9.70;;;7.30;;
2452;SDS011;63678;47.994;7.854;2023-06-10T15:56:49;9.20;;;6.90;;